Time;durP1;ratioP1;P1;durP2;ratioP2;P2;SDS_P1;SDS_P2;PMS_P1;PMS_P2;Temp;Humidity;BMP_temperature;BMP_pressure;BME280_temperature;BME280_humidity;BME280_pressure;Samples;Min_cycle;Max_cycle;Signal;HPM_P1;HPM_P2
2022/07/26 00:00:15;;;;;;;7.03;2.13;;;17.90;99.90;;;;;;5014732;28;20380;-70
2022/07/26 00:02:41;;;;;;;5.70;1.98;;;17.90;99.90;;;;;;5015024;28;20046;-71
2022/07/26 00:05:08;;;;;;;6.35;1.98;;;17.80;99.90;;;;;;5015176;28;20044;-69
2022/07/26 00:07:34;;;;;;;7.85;2.25;;;17.80;99.90;;;;;;4996438;28;20065;-69
2022/07/26 00:10:00;;;;;;;7.72;2.08;;;17.80;99.90;;;;;;5014519;28;20049;-70
2022/07/26 00:12:26;;;;;;;6.97;1.77;;;17.70;99.90;;;;;;4996621;28;20045;-70
2022/07/26 00:14:52;;;;;;;5.78;2.05;;;17.80;99.90;;;;;;5014344;28;20037;-71
2022/07/26 00:17:17;;;;;;;7.93;2.42;;;17.70;99.90;;;;;;5014467;28;20505;-70
2022/07/26 00:19:43;;;;;;;7.22;2.00;;;17.80;99.90;;;;;;5014425;28;20049;-70
2022/07/26 00:24:53;;;;;;;6.85;2.03;;;17.80;99.90;;;;;;5014876;28;20046;-70
2022/07/26 00:27:19;;;;;;;5.97;1.85;;;17.80;99.90;;;;;;5014249;28;20049;-70
2022/07/26 00:29:45;;;;;;;7.90;2.70;;;17.80;99.90;;;;;;4996758;28;20052;-70
2022/07/26 00:32:10;;;;;;;7.38;1.90;;;17.80;99.90;;;;;;5014447;28;20045;-70
2022/07/26 00:34:36;;;;;;;8.02;2.38;;;17.80;99.90;;;;;;5014018;28;20467;-70
2022/07/26 00:37:02;;;;;;;8.95;2.35;;;17.80;99.90;;;;;;5014393;28;20049;-70
2022/07/26 00:39:27;;;;;;;6.90;2.13;;;17.80;99.90;;;;;;5014042;28;20137;-70
2022/07/26 00:41:53;;;;;;;5.78;2.00;;;17.80;99.90;;;;;;4980826;28;20046;-70
2022/07/26 00:44:19;;;;;;;5.15;1.83;;;17.90;99.90;;;;;;5014019;28;20049;-71
2022/07/26 00:46:45;;;;;;;6.68;2.17;;;17.90;99.90;;;;;;5013931;28;20046;-71
2022/07/26 00:49:11;;;;;;;7.30;2.35;;;17.80;99.90;;;;;;5013937;28;20112;-70
2022/07/26 00:51:37;;;;;;;4.45;2.17;;;17.90;99.90;;;;;;4996904;28;20042;-70
2022/07/26 00:54:04;;;;;;;7.30;2.00;;;17.90;99.90;;;;;;5013436;28;20471;-70
2022/07/26 00:56:32;;;;;;;7.90;2.22;;;17.90;99.90;;;;;;5013834;28;20060;-71
2022/07/26 00:58:57;;;;;;;4.88;1.98;;;17.90;99.90;;;;;;5013824;28;20046;-70
2022/07/26 01:01:23;;;;;;;6.32;2.20;;;17.80;99.90;;;;;;5014484;28;20041;-70
2022/07/26 01:03:53;;;;;;;7.60;2.15;;;17.80;99.90;;;;;;5013667;28;20041;-71
2022/07/26 01:06:20;;;;;;;4.78;2.08;;;17.80;99.90;;;;;;4979950;28;20050;-70
2022/07/26 01:08:45;;;;;;;4.78;1.98;;;17.70;99.90;;;;;;5013599;28;20058;-70
2022/07/26 01:11:13;;;;;;;6.38;2.58;;;17.60;99.90;;;;;;5014471;28;20084;-70
2022/07/26 01:13:46;;;;;;;8.65;2.67;;;17.50;99.90;;;;;;5013641;28;20077;-70
2022/07/26 01:16:12;;;;;;;9.18;2.83;;;17.50;99.90;;;;;;4996505;28;20050;-72
2022/07/26 01:18:37;;;;;;;4.78;2.20;;;17.40;99.90;;;;;;4995357;28;20056;-71
2022/07/26 01:21:07;;;;;;;8.05;2.45;;;17.30;99.90;;;;;;5013598;28;20056;-70
2022/07/26 01:23:33;;;;;;;5.53;2.42;;;17.30;99.90;;;;;;5013527;28;20089;-71
2022/07/26 01:25:59;;;;;;;6.80;2.50;;;17.30;99.90;;;;;;5013488;28;20042;-70
2022/07/26 01:28:25;;;;;;;8.05;1.92;;;17.40;99.90;;;;;;5013384;28;20048;-70
2022/07/26 01:30:50;;;;;;;8.20;2.40;;;17.40;99.90;;;;;;4996050;28;20085;-69
2022/07/26 01:33:16;;;;;;;7.18;2.55;;;17.40;99.90;;;;;;5013730;28;20068;-70
2022/07/26 01:35:42;;;;;;;8.65;2.78;;;17.30;99.90;;;;;;5013321;28;20463;-70
2022/07/26 01:38:08;;;;;;;8.45;2.75;;;17.30;99.90;;;;;;5013288;28;20099;-70
2022/07/26 01:40:33;;;;;;;8.85;2.60;;;17.30;99.90;;;;;;4996307;28;20060;-70
2022/07/26 01:42:59;;;;;;;8.93;2.85;;;17.20;99.90;;;;;;5013319;28;20188;-70
2022/07/26 01:45:25;;;;;;;9.60;2.90;;;17.20;99.90;;;;;;5013745;28;20053;-70
2022/07/26 01:47:50;;;;;;;6.72;2.65;;;17.10;99.90;;;;;;5014253;28;20537;-72
2022/07/26 01:50:17;;;;;;;7.30;2.78;;;17.20;99.90;;;;;;4997983;28;20077;-70
2022/07/26 01:52:43;;;;;;;5.50;2.92;;;17.10;99.90;;;;;;5014604;28;20050;-69
2022/07/26 01:55:09;;;;;;;7.38;2.80;;;17.10;99.90;;;;;;5013097;28;20061;-70
2022/07/26 01:57:34;;;;;;;7.78;3.33;;;17.10;99.90;;;;;;5013909;28;20092;-70
2022/07/26 02:00:01;;;;;;;7.93;2.90;;;17.00;99.90;;;;;;5013198;28;20104;-71
2022/07/26 02:02:28;;;;;;;6.72;2.67;;;17.10;99.90;;;;;;5013461;28;20052;-70
2022/07/26 02:05:00;;;;;;;6.82;2.97;;;17.10;99.90;;;;;;5012809;28;20050;-72
2022/07/26 02:07:40;;;;;;;7.55;2.67;;;17.10;99.90;;;;;;5013929;28;20224;-70
2022/07/26 02:10:08;;;;;;;6.97;2.55;;;17.10;99.90;;;;;;4996288;28;20367;-71
2022/07/26 02:12:34;;;;;;;6.70;3.05;;;17.00;99.90;;;;;;5013075;28;20108;-71
2022/07/26 02:15:00;;;;;;;6.60;2.90;;;17.00;99.90;;;;;;5012910;28;20046;-70
2022/07/26 02:17:26;;;;;;;11.00;3.13;;;17.00;99.90;;;;;;4996180;28;20064;-70
2022/07/26 02:19:51;;;;;;;8.20;2.95;;;17.00;99.90;;;;;;5013484;28;20046;-70
2022/07/26 02:22:20;;;;;;;6.18;2.97;;;16.90;99.90;;;;;;5013060;28;20081;-70
2022/07/26 02:24:47;;;;;;;10.00;3.65;;;16.90;99.90;;;;;;5012620;28;20482;-70
2022/07/26 02:27:13;;;;;;;8.93;2.97;;;16.90;99.90;;;;;;5012856;28;20050;-71
2022/07/26 02:29:39;;;;;;;9.38;3.42;;;16.90;99.90;;;;;;5014267;28;20372;-71
2022/07/26 02:32:05;;;;;;;8.98;3.10;;;17.00;99.90;;;;;;5017156;28;20137;-71
2022/07/26 02:34:31;;;;;;;10.68;3.25;;;16.90;99.90;;;;;;4999767;28;20472;-70
2022/07/26 02:36:57;;;;;;;9.27;3.58;;;17.00;99.90;;;;;;5016368;28;20134;-70
2022/07/26 02:39:26;;;;;;;10.88;4.28;;;16.90;99.90;;;;;;5016211;28;20081;-71
2022/07/26 02:41:57;;;;;;;9.88;3.50;;;16.90;99.90;;;;;;5016310;28;20042;-72
2022/07/26 02:44:24;;;;;;;7.75;3.13;;;17.00;99.90;;;;;;5016214;28;20042;-73
2022/07/26 02:46:50;;;;;;;6.80;3.40;;;17.00;99.90;;;;;;5016128;28;20069;-70
2022/07/26 02:49:16;;;;;;;8.40;3.30;;;17.00;99.90;;;;;;5016089;28;20061;-71
2022/07/26 02:51:42;;;;;;;7.18;3.13;;;17.00;99.90;;;;;;4999487;28;20058;-70
2022/07/26 02:54:07;;;;;;;9.00;3.53;;;17.00;99.90;;;;;;5016745;28;20046;-71
2022/07/26 02:56:33;;;;;;;8.35;3.47;;;17.00;99.90;;;;;;5016519;28;20368;-70
2022/07/26 02:58:59;;;;;;;8.43;3.50;;;17.00;99.90;;;;;;4983271;28;20441;-70
2022/07/26 03:01:24;;;;;;;8.00;3.15;;;17.00;99.90;;;;;;5015872;28;20045;-72
2022/07/26 03:03:50;;;;;;;8.50;3.60;;;17.00;99.90;;;;;;5015837;28;20117;-70
2022/07/26 03:06:16;;;;;;;10.23;3.65;;;16.90;99.90;;;;;;4998295;28;20145;-70
2022/07/26 03:08:42;;;;;;;7.40;3.05;;;16.90;99.90;;;;;;5015408;28;20486;-70
2022/07/26 03:11:07;;;;;;;7.47;3.30;;;16.80;99.90;;;;;;5016272;28;20054;-72
2022/07/26 03:13:33;;;;;;;7.45;3.05;;;16.80;99.90;;;;;;5015647;28;20041;-71
2022/07/26 03:15:59;;;;;;;7.85;3.28;;;16.80;99.90;;;;;;4997779;28;20088;-71
2022/07/26 03:18:25;;;;;;;7.60;3.03;;;16.80;99.90;;;;;;5015558;28;20057;-69
2022/07/26 03:20:50;;;;;;;7.93;3.50;;;16.80;99.90;;;;;;4999034;28;20386;-70
2022/07/26 03:23:16;;;;;;;8.85;3.33;;;16.80;99.90;;;;;;5015128;28;20108;-69
2022/07/26 03:25:42;;;;;;;10.63;3.22;;;16.80;99.90;;;;;;5015507;28;20041;-70
2022/07/26 03:28:08;;;;;;;11.45;3.53;;;16.80;99.90;;;;;;5015859;28;20041;-69
2022/07/26 03:30:34;;;;;;;9.18;3.35;;;16.80;99.90;;;;;;4998102;28;20375;-69
2022/07/26 03:32:59;;;;;;;5.97;2.85;;;16.80;99.90;;;;;;5015555;28;20049;-70
2022/07/26 03:35:25;;;;;;;8.73;3.40;;;16.80;99.90;;;;;;5015201;28;20467;-70
2022/07/26 03:37:51;;;;;;;10.48;3.20;;;16.80;99.90;;;;;;5015132;28;20048;-70
2022/07/26 03:40:18;;;;;;;8.90;3.15;;;16.80;99.90;;;;;;5014944;28;20133;-69
2022/07/26 03:42:45;;;;;;;10.55;3.17;;;16.80;99.90;;;;;;5014582;28;20133;-69
2022/07/26 03:45:11;;;;;;;9.38;3.25;;;16.80;99.90;;;;;;5015045;28;20049;-70
2022/07/26 03:47:37;;;;;;;7.38;3.55;;;16.80;99.90;;;;;;4998289;28;20367;-70
2022/07/26 03:50:06;;;;;;;5.50;2.97;;;16.80;99.90;;;;;;5014985;28;20046;-70
2022/07/26 03:52:32;;;;;;;9.15;3.38;;;16.80;99.90;;;;;;4997653;28;20050;-69
2022/07/26 03:54:58;;;;;;;7.80;2.83;;;16.80;99.90;;;;;;5014727;28;20045;-70
2022/07/26 03:57:24;;;;;;;8.95;3.28;;;16.80;99.90;;;;;;5014897;28;20127;-70
2022/07/26 03:59:50;;;;;;;7.10;2.80;;;16.80;99.90;;;;;;5014973;28;20038;-70
2022/07/26 04:02:15;;;;;;;7.10;3.22;;;16.80;99.90;;;;;;5014776;28;20081;-72
2022/07/26 04:04:41;;;;;;;5.28;2.20;;;16.80;99.90;;;;;;5015202;28;20042;-70
2022/07/26 04:07:07;;;;;;;6.38;2.17;;;16.80;99.90;;;;;;5014535;28;20101;-71
2022/07/26 04:09:33;;;;;;;5.75;2.10;;;16.80;99.90;;;;;;4997202;28;20046;-68
2022/07/26 04:11:58;;;;;;;4.95;1.50;;;16.90;99.90;;;;;;5015713;28;20487;-71
2022/07/26 04:14:24;;;;;;;2.45;1.30;;;16.90;99.90;;;;;;4996749;28;20483;-70
2022/07/26 04:16:49;;;;;;;4.75;1.67;;;16.90;99.90;;;;;;4997713;28;20132;-69
2022/07/26 04:19:15;;;;;;;3.80;1.38;;;17.00;99.90;;;;;;5014979;28;20057;-68
2022/07/26 04:21:41;;;;;;;3.90;1.75;;;17.00;99.90;;;;;;5015200;28;20514;-69
2022/07/26 04:24:07;;;;;;;6.65;1.60;;;17.00;99.90;;;;;;5014799;28;20391;-69
2022/07/26 04:26:33;;;;;;;3.55;1.73;;;17.10;99.90;;;;;;4996974;28;20395;-69
2022/07/26 04:28:58;;;;;;;6.32;1.40;;;17.10;99.90;;;;;;4997664;28;20053;-70
2022/07/26 04:31:24;;;;;;;4.68;1.60;;;17.10;99.90;;;;;;4996976;28;20459;-70
2022/07/26 04:33:51;;;;;;;3.90;1.50;;;17.10;99.90;;;;;;5013846;28;20557;-69
2022/07/26 04:36:16;;;;;;;4.05;1.27;;;17.10;99.90;;;;;;5014059;28;20100;-71
2022/07/26 04:38:42;;;;;;;4.15;1.40;;;17.20;99.90;;;;;;5014069;28;20045;-69
2022/07/26 04:41:08;;;;;;;5.40;1.58;;;17.20;99.90;;;;;;5014346;28;20108;-69
2022/07/26 04:43:33;;;;;;;5.85;1.30;;;17.20;99.90;;;;;;4997156;28;20041;-69
2022/07/26 04:45:59;;;;;;;3.80;1.50;;;17.20;99.90;;;;;;5014065;28;20038;-68
2022/07/26 04:48:25;;;;;;;3.85;1.52;;;17.10;99.90;;;;;;5013964;28;20505;-70
2022/07/26 04:50:51;;;;;;;4.90;1.58;;;17.10;99.90;;;;;;5013891;28;20049;-68
2022/07/26 04:53:17;;;;;;;5.50;1.92;;;17.10;99.90;;;;;;5013845;28;20042;-70
2022/07/26 04:55:43;;;;;;;5.40;1.95;;;17.10;99.90;;;;;;5013863;28;20048;-69
2022/07/26 04:58:09;;;;;;;2.05;1.20;;;17.10;99.90;;;;;;4996412;28;20061;-69
2022/07/26 05:00:35;;;;;;;3.92;1.48;;;17.10;99.90;;;;;;5013760;28;20390;-69
2022/07/26 05:03:02;;;;;;;4.18;1.48;;;17.10;99.90;;;;;;5013778;28;20122;-69
2022/07/26 05:05:30;;;;;;;2.78;1.48;;;17.20;99.90;;;;;;4996353;28;20054;-69
2022/07/26 05:07:58;;;;;;;3.90;1.20;;;17.20;99.90;;;;;;5014093;28;20132;-70
2022/07/26 05:10:33;;;;;;;5.22;1.60;;;17.20;99.90;;;;;;5013659;28;20050;-69
2022/07/26 05:13:00;;;;;;;4.25;1.17;;;17.20;99.90;;;;;;5014129;28;20049;-70
2022/07/26 05:15:25;;;;;;;2.47;1.10;;;17.20;99.90;;;;;;5013405;28;20069;-71
2022/07/26 05:17:52;;;;;;;4.97;1.38;;;17.30;99.90;;;;;;5013584;28;20042;-69
2022/07/26 05:20:18;;;;;;;4.55;1.20;;;17.30;99.90;;;;;;5013501;28;20062;-71
2022/07/26 05:22:44;;;;;;;5.05;1.20;;;17.30;99.90;;;;;;5013508;28;20054;-70
2022/07/26 05:25:10;;;;;;;2.92;1.33;;;17.30;99.90;;;;;;4996525;28;20046;-69
2022/07/26 05:27:36;;;;;;;3.38;0.90;;;17.40;99.90;;;;;;5013687;28;20049;-70
2022/07/26 05:30:02;;;;;;;2.15;1.17;;;17.40;99.90;;;;;;5013424;28;20053;-69
2022/07/26 05:32:28;;;;;;;2.55;1.10;;;17.40;99.90;;;;;;5013442;28;20058;-69
2022/07/26 05:34:53;;;;;;;3.92;1.08;;;17.40;99.90;;;;;;5013541;28;20050;-70
2022/07/26 05:37:19;;;;;;;2.08;0.90;;;17.50;99.90;;;;;;5013383;28;20406;-69
2022/07/26 05:39:44;;;;;;;2.45;1.10;;;17.50;99.90;;;;;;5013293;28;20042;-69
2022/07/26 05:42:10;;;;;;;2.22;1.00;;;17.50;99.90;;;;;;5013803;28;20520;-69
2022/07/26 05:44:36;;;;;;;2.78;0.90;;;17.50;99.90;;;;;;5013310;28;20045;-69
2022/07/26 05:47:02;;;;;;;3.20;1.00;;;17.50;99.90;;;;;;5013243;28;20411;-70
2022/07/26 05:49:27;;;;;;;3.88;0.95;;;17.50;99.90;;;;;;5013294;28;20097;-69
2022/07/26 05:51:53;;;;;;;3.10;0.90;;;17.50;99.90;;;;;;5013191;28;20119;-70
2022/07/26 05:54:20;;;;;;;2.10;0.88;;;17.50;99.90;;;;;;5014567;28;20050;-70
2022/07/26 05:56:46;;;;;;;3.92;0.90;;;17.50;99.90;;;;;;5015133;28;20097;-70
2022/07/26 05:59:12;;;;;;;4.65;1.10;;;17.50;99.90;;;;;;5015323;28;20057;-69
2022/07/26 06:01:37;;;;;;;3.05;0.70;;;17.50;99.90;;;;;;5013199;28;20053;-68
2022/07/26 06:04:03;;;;;;;3.35;1.02;;;17.50;99.90;;;;;;5013738;28;20050;-70
2022/07/26 06:06:29;;;;;;;3.20;0.90;;;17.40;99.90;;;;;;5017365;28;20053;-70
2022/07/26 06:08:55;;;;;;;2.70;0.75;;;17.40;99.90;;;;;;5017039;28;20053;-69
2022/07/26 06:11:21;;;;;;;2.42;0.70;;;17.30;99.90;;;;;;5017316;28;20042;-65
2022/07/26 06:13:46;;;;;;;2.08;0.93;;;17.30;99.90;;;;;;5016481;28;20058;-65
2022/07/26 06:16:12;;;;;;;3.60;0.73;;;17.30;99.90;;;;;;5017328;28;20046;-65
2022/07/26 06:18:38;;;;;;;2.55;0.73;;;17.30;99.90;;;;;;5016681;28;20371;-65
2022/07/26 06:21:04;;;;;;;1.83;0.70;;;17.30;99.90;;;;;;5016688;28;20050;-64
2022/07/26 06:23:30;;;;;;;3.08;0.90;;;17.30;99.90;;;;;;5016644;28;20046;-64
2022/07/26 06:25:56;;;;;;;1.80;0.50;;;17.40;99.90;;;;;;5016591;28;20364;-65
2022/07/26 06:28:22;;;;;;;2.53;1.00;;;17.50;99.90;;;;;;4998887;28;20045;-65
2022/07/26 06:30:48;;;;;;;2.25;0.63;;;17.50;99.90;;;;;;5016432;28;20133;-65
2022/07/26 06:33:13;;;;;;;4.22;0.70;;;17.60;99.90;;;;;;5016412;28;20090;-65
2022/07/26 06:35:39;;;;;;;2.58;0.70;;;17.60;99.90;;;;;;5016282;28;20041;-65
2022/07/26 06:38:05;;;;;;;1.65;0.60;;;17.70;99.90;;;;;;4999024;28;20058;-65
2022/07/26 06:40:32;;;;;;;2.40;0.60;;;17.70;99.90;;;;;;5016249;28;20053;-66
2022/07/26 06:42:59;;;;;;;1.92;0.73;;;17.80;99.90;;;;;;5016291;28;20061;-65
2022/07/26 06:45:25;;;;;;;3.03;0.70;;;17.80;99.90;;;;;;5016234;28;20041;-65
2022/07/26 06:47:50;;;;;;;2.08;0.50;;;17.90;99.90;;;;;;5016190;28;20069;-65
2022/07/26 06:50:16;;;;;;;2.17;0.50;;;18.00;99.90;;;;;;5016168;28;20042;-65
2022/07/26 06:52:42;;;;;;;2.70;0.70;;;18.10;99.90;;;;;;5016584;28;20129;-65
2022/07/26 06:55:08;;;;;;;2.65;0.63;;;18.00;99.90;;;;;;5015713;28;20622;-64
2022/07/26 06:57:35;;;;;;;1.80;0.60;;;17.90;99.90;;;;;;5016818;28;20377;-65
2022/07/26 07:00:03;;;;;;;0.70;0.30;;;17.60;99.90;;;;;;5015937;28;20139;-64
2022/07/26 07:02:29;;;;;;;1.27;0.30;;;17.40;99.90;;;;;;5015129;28;20513;-65
2022/07/26 07:04:55;;;;;;;1.00;0.40;;;17.20;99.90;;;;;;5015365;28;20081;-66
2022/07/26 07:07:20;;;;;;;0.85;0.35;;;17.10;99.90;;;;;;4981806;28;20050;-66
2022/07/26 07:09:46;;;;;;;1.13;0.40;;;17.10;99.90;;;;;;5015924;28;20108;-66
2022/07/26 07:12:14;;;;;;;1.05;0.40;;;17.10;99.90;;;;;;5015691;28;20394;-66
2022/07/26 07:14:40;;;;;;;2.58;0.55;;;17.10;99.90;;;;;;5015891;28;20441;-65
2022/07/26 07:17:07;;;;;;;1.38;0.68;;;17.10;99.90;;;;;;5014913;28;20101;-65
2022/07/26 07:19:35;;;;;;;3.45;0.55;;;17.20;99.90;;;;;;5015587;28;20050;-65
2022/07/26 07:22:01;;;;;;;2.67;0.68;;;17.30;99.90;;;;;;5015523;28;20050;-64
2022/07/26 07:24:27;;;;;;;2.75;0.50;;;17.30;99.90;;;;;;5016005;28;20045;-66
2022/07/26 07:26:53;;;;;;;1.95;0.50;;;17.40;99.90;;;;;;5015740;28;20425;-66
2022/07/26 07:29:19;;;;;;;2.58;0.57;;;17.50;99.90;;;;;;5015349;28;20056;-66
2022/07/26 07:31:48;;;;;;;1.55;0.63;;;17.60;99.90;;;;;;4997952;28;20120;-66
2022/07/26 07:34:15;;;;;;;1.30;0.50;;;17.70;99.90;;;;;;4997207;28;20137;-66
2022/07/26 07:36:40;;;;;;;2.42;0.77;;;17.80;99.90;;;;;;5015285;28;20046;-65
2022/07/26 07:39:06;;;;;;;3.00;0.60;;;17.80;99.90;;;;;;5015090;28;20470;-66
2022/07/26 07:41:33;;;;;;;2.42;0.77;;;17.80;99.90;;;;;;4998089;28;20140;-66
2022/07/26 07:43:59;;;;;;;1.20;0.65;;;17.70;99.90;;;;;;5015025;28;20041;-65
2022/07/26 07:46:26;;;;;;;2.55;0.60;;;17.70;99.90;;;;;;5014990;28;20045;-65
2022/07/26 07:48:52;;;;;;;2.10;0.60;;;17.60;99.90;;;;;;5015300;28;20056;-66
2022/07/26 07:51:18;;;;;;;2.08;0.50;;;17.40;99.90;;;;;;5014965;28;20054;-66
2022/07/26 07:53:44;;;;;;;2.13;0.70;;;17.40;99.90;;;;;;5014896;28;20152;-66
2022/07/26 07:56:09;;;;;;;2.15;0.70;;;17.40;99.90;;;;;;5014461;28;20034;-64
2022/07/26 07:58:35;;;;;;;2.85;0.63;;;17.40;99.90;;;;;;5015360;28;20132;-64
2022/07/26 08:01:01;;;;;;;3.40;0.70;;;17.40;99.90;;;;;;4997022;28;20137;-65
2022/07/26 08:03:27;;;;;;;2.65;0.60;;;17.50;99.90;;;;;;5015121;28;20049;-65
2022/07/26 08:05:52;;;;;;;2.25;0.50;;;17.50;99.90;;;;;;4997128;28;20488;-65
2022/07/26 08:08:21;;;;;;;2.20;0.60;;;17.50;99.90;;;;;;5014482;28;20143;-65
2022/07/26 08:10:47;;;;;;;2.15;0.70;;;17.60;99.90;;;;;;5014618;28;20458;-66
2022/07/26 08:13:12;;;;;;;1.33;0.50;;;17.50;99.90;;;;;;5014798;28;20073;-65
2022/07/26 08:15:38;;;;;;;2.83;0.50;;;17.60;99.90;;;;;;5014341;28;20049;-65
2022/07/26 08:18:04;;;;;;;2.50;0.70;;;17.70;99.90;;;;;;5014591;28;20420;-66
2022/07/26 08:20:29;;;;;;;3.33;0.70;;;17.80;99.90;;;;;;5014188;28;20042;-65
2022/07/26 08:22:55;;;;;;;2.05;0.60;;;17.80;99.90;;;;;;5014283;28;20053;-66
2022/07/26 08:25:21;;;;;;;2.95;0.70;;;17.90;99.90;;;;;;5014073;28;20038;-65
2022/07/26 08:27:47;;;;;;;1.60;0.60;;;18.00;99.90;;;;;;5014279;28;20463;-66
2022/07/26 08:30:13;;;;;;;1.88;0.52;;;18.20;99.90;;;;;;5013934;28;20046;-65
2022/07/26 08:32:38;;;;;;;2.83;0.68;;;18.40;99.90;;;;;;5013890;28;20438;-66
2022/07/26 08:35:04;;;;;;;2.65;0.55;;;18.50;99.90;;;;;;5013802;28;20168;-65
2022/07/26 08:37:30;;;;;;;4.47;0.65;;;18.60;99.90;;;;;;5014506;28;20046;-66
2022/07/26 08:39:56;;;;;;;1.30;0.50;;;18.70;99.90;;;;;;5014302;28;20068;-65
2022/07/26 08:42:22;;;;;;;1.55;0.50;;;18.70;99.90;;;;;;5013998;28;20048;-65
2022/07/26 08:44:48;;;;;;;4.28;0.60;;;18.70;99.90;;;;;;5013791;28;20042;-65
2022/07/26 08:47:15;;;;;;;2.80;0.45;;;18.70;99.90;;;;;;5013706;28;20046;-64
2022/07/26 08:49:42;;;;;;;3.20;0.75;;;18.70;99.90;;;;;;5013737;28;20045;-65
2022/07/26 08:52:10;;;;;;;1.92;0.50;;;18.70;99.90;;;;;;5013754;28;20482;-65
2022/07/26 08:54:41;;;;;;;2.03;0.47;;;18.60;99.90;;;;;;4995995;28;20485;-64
2022/07/26 08:57:06;;;;;;;1.90;0.57;;;18.60;99.90;;;;;;5013642;28;20475;-65
2022/07/26 08:59:32;;;;;;;2.08;0.70;;;18.50;99.90;;;;;;5013976;28;20061;-65
2022/07/26 09:02:04;;;;;;;4.53;0.90;;;18.50;99.90;;;;;;5013538;28;20446;-65
2022/07/26 09:04:35;;;;;;;2.03;0.60;;;18.50;99.90;;;;;;5013953;28;20352;-64
2022/07/26 09:07:05;;;;;;;2.83;0.80;;;18.50;99.90;;;;;;5013408;28;20062;-64
2022/07/26 09:09:33;;;;;;;2.33;0.63;;;18.60;99.90;;;;;;5013809;28;20059;-64
2022/07/26 09:12:16;;;;;;;1.98;0.63;;;18.70;99.90;;;;;;5013276;28;20490;-65
2022/07/26 09:14:45;;;;;;;2.00;0.52;;;18.90;99.90;;;;;;5014043;28;20129;-65
2022/07/26 09:17:11;;;;;;;2.50;0.60;;;19.00;99.90;;;;;;4995882;28;20133;-64
2022/07/26 09:19:37;;;;;;;2.88;0.50;;;19.10;99.90;;;;;;5013308;28;20050;-64
2022/07/26 09:22:15;;;;;;;1.92;0.70;;;19.20;99.90;;;;;;5012890;28;20045;-64
2022/07/26 09:24:46;;;;;;;2.85;0.70;;;19.20;99.90;;;;;;5013982;28;20121;-64
2022/07/26 09:27:16;;;;;;;2.75;0.68;;;18.90;99.90;;;;;;5013858;28;20367;-64
2022/07/26 09:29:44;;;;;;;3.45;0.80;;;18.70;99.90;;;;;;5014276;28;20038;-65
2022/07/26 09:32:11;;;;;;;3.83;0.70;;;18.60;99.90;;;;;;5013196;28;20045;-65
2022/07/26 09:34:38;;;;;;;1.80;0.50;;;18.50;99.90;;;;;;5013363;28;20466;-65
2022/07/26 09:37:03;;;;;;;2.22;0.68;;;18.40;99.90;;;;;;5013576;28;20050;-66
2022/07/26 09:39:30;;;;;;;3.47;0.70;;;18.30;99.90;;;;;;5014039;28;20449;-66
2022/07/26 09:41:55;;;;;;;2.45;0.70;;;18.30;99.90;;;;;;5017008;28;20107;-65
2022/07/26 09:44:24;;;;;;;1.27;0.60;;;18.40;99.90;;;;;;5017833;28;20046;-65
2022/07/26 09:46:57;;;;;;;3.97;0.70;;;18.40;99.90;;;;;;5017610;28;20061;-64
2022/07/26 09:49:24;;;;;;;3.08;0.65;;;18.50;99.90;;;;;;5016700;28;20121;-66
2022/07/26 09:51:52;;;;;;;3.42;0.80;;;18.70;99.90;;;;;;5017339;28;20097;-66
2022/07/26 09:54:34;;;;;;;3.00;0.60;;;18.90;99.90;;;;;;5017434;28;20111;-66
2022/07/26 09:57:00;;;;;;;2.72;0.60;;;19.00;99.90;;;;;;5017623;28;20375;-66
2022/07/26 09:59:28;;;;;;;1.67;0.55;;;19.10;99.90;;;;;;5017509;28;20184;-66
2022/07/26 10:01:56;;;;;;;2.22;0.50;;;19.10;99.90;;;;;;5016884;28;20107;-66
2022/07/26 10:04:23;;;;;;;1.80;0.47;;;19.10;99.90;;;;;;5016739;28;20041;-66
2022/07/26 10:06:49;;;;;;;2.88;0.50;;;19.20;99.90;;;;;;5016508;28;20062;-66
2022/07/26 10:09:17;;;;;;;2.42;0.50;;;19.30;99.90;;;;;;4999177;28;20054;-67
2022/07/26 10:11:48;;;;;;;2.03;0.70;;;19.30;99.90;;;;;;5016680;28;20128;-66
2022/07/26 10:14:32;;;;;;;2.45;0.60;;;19.60;99.90;;;;;;5016565;28;20518;-66
2022/07/26 10:17:21;;;;;;;3.35;0.70;;;19.70;99.90;;;;;;5016735;28;20054;-67
2022/07/26 10:19:46;;;;;;;2.63;0.82;;;19.70;99.90;;;;;;5016938;28;20143;-65
2022/07/26 10:22:25;;;;;;;2.17;0.68;;;19.80;99.90;;;;;;5017345;28;20073;-66
2022/07/26 10:24:52;;;;;;;3.63;0.65;;;19.80;99.90;;;;;;5016485;28;20073;-65
2022/07/26 10:27:36;;;;;;;1.88;0.70;;;19.90;99.90;;;;;;4999066;28;20433;-66
2022/07/26 10:30:17;;;;;;;1.52;0.60;;;19.80;99.90;;;;;;5016487;28;20125;-66
2022/07/26 10:33:08;;;;;;;1.90;0.60;;;19.70;99.90;;;;;;5017205;28;20467;-66
2022/07/26 10:35:43;;;;;;;3.30;0.68;;;19.50;99.90;;;;;;5016316;28;20080;-66
2022/07/26 10:38:12;;;;;;;3.65;0.70;;;19.20;99.90;;;;;;5016547;28;20041;-65
2022/07/26 10:40:55;;;;;;;3.15;0.85;;;19.00;99.90;;;;;;5016606;28;20099;-65
2022/07/26 10:43:20;;;;;;;2.03;0.75;;;18.80;99.90;;;;;;5016755;28;20398;-65
2022/07/26 10:45:46;;;;;;;2.63;0.90;;;18.70;99.90;;;;;;5016740;28;20042;-65
2022/07/26 10:48:21;;;;;;;2.58;0.60;;;18.50;99.90;;;;;;5016161;28;20192;-65
2022/07/26 10:50:52;;;;;;;2.90;0.60;;;18.40;99.90;;;;;;5015808;28;20092;-66
2022/07/26 10:53:23;;;;;;;2.25;0.60;;;18.40;99.90;;;;;;5016008;28;20081;-65
2022/07/26 10:55:49;;;;;;;3.70;0.77;;;18.30;99.90;;;;;;5016235;28;20050;-65
2022/07/26 10:58:14;;;;;;;3.47;1.00;;;18.40;99.90;;;;;;5015892;28;20394;-65
2022/07/26 11:00:52;;;;;;;4.05;1.00;;;18.40;99.90;;;;;;5015870;28;20058;-64
2022/07/26 11:03:18;;;;;;;2.47;0.85;;;18.60;99.90;;;;;;5015549;28;20513;-65
2022/07/26 11:05:44;;;;;;;2.55;1.00;;;18.70;99.90;;;;;;5015837;28;20034;-65
2022/07/26 11:08:09;;;;;;;3.28;1.00;;;18.90;99.90;;;;;;5016204;28;20104;-66
2022/07/26 11:10:41;;;;;;;2.92;0.80;;;19.10;99.90;;;;;;5015829;28;20093;-66
2022/07/26 11:13:13;;;;;;;2.42;0.85;;;19.20;99.90;;;;;;4999105;28;20054;-66
2022/07/26 11:15:47;;;;;;;2.47;1.02;;;19.30;99.90;;;;;;5016255;28;20046;-66
2022/07/26 11:18:26;;;;;;;2.15;0.75;;;19.20;99.90;;;;;;5015863;28;20042;-66
2022/07/26 11:20:57;;;;;;;4.03;1.00;;;19.20;99.90;;;;;;4997944;28;20048;-66
2022/07/26 11:23:28;;;;;;;2.78;1.10;;;19.20;99.90;;;;;;5015826;28;20046;-66
2022/07/26 11:26:21;;;;;;;3.22;1.08;;;19.20;99.90;;;;;;5015621;28;20065;-65
2022/07/26 11:28:55;;;;;;;4.63;1.23;;;19.10;99.90;;;;;;5016061;28;20045;-65
2022/07/26 11:31:43;;;;;;;4.00;1.10;;;18.90;99.90;;;;;;5015903;28;20050;-66
2022/07/26 11:34:21;;;;;;;7.50;1.83;;;18.60;99.90;;;;;;5014258;28;20495;-65
2022/07/26 11:36:48;;;;;;;4.40;1.40;;;18.40;99.90;;;;;;5015627;28;20057;-64
2022/07/26 11:39:34;;;;;;;5.88;1.33;;;18.30;99.90;;;;;;5015507;28;20052;-65
2022/07/26 11:42:06;;;;;;;4.60;1.08;;;18.20;99.90;;;;;;4997276;28;20062;-65
2022/07/26 11:44:33;;;;;;;5.18;1.50;;;18.20;99.90;;;;;;4997669;28;20478;-65
2022/07/26 11:47:08;;;;;;;4.53;1.10;;;18.20;99.90;;;;;;4997263;28;20111;-65
2022/07/26 11:49:34;;;;;;;5.53;1.15;;;18.20;99.90;;;;;;4997651;28;20383;-65
2022/07/26 11:52:02;;;;;;;3.95;1.67;;;18.50;99.90;;;;;;4997174;28;20061;-65
2022/07/26 11:54:30;;;;;;;5.85;1.50;;;18.70;99.90;;;;;;5014235;28;20054;-65
2022/07/26 11:56:57;;;;;;;4.13;1.27;;;19.00;99.90;;;;;;5014536;28;20060;-66
2022/07/26 11:59:25;;;;;;;5.70;1.33;;;19.10;99.90;;;;;;5015356;28;20046;-66
2022/07/26 12:01:51;;;;;;;4.78;1.30;;;19.20;99.90;;;;;;5013891;28;20136;-66
2022/07/26 12:04:26;;;;;;;3.90;0.82;;;19.20;99.90;;;;;;5014894;28;20042;-66
2022/07/26 12:06:52;;;;;;;3.58;0.90;;;19.20;99.90;;;;;;5014246;28;20546;-65
2022/07/26 12:09:34;;;;;;;5.93;1.20;;;19.10;99.90;;;;;;5014270;28;20503;-66
2022/07/26 12:12:03;;;;;;;3.25;1.05;;;18.90;99.90;;;;;;5014424;28;20501;-65
2022/07/26 12:14:31;;;;;;;2.83;1.08;;;18.90;99.90;;;;;;5014254;28;20093;-65
2022/07/26 12:16:57;;;;;;;7.03;1.10;;;18.80;99.90;;;;;;5014070;28;20125;-65
2022/07/26 12:19:26;;;;;;;4.93;1.08;;;18.80;99.90;;;;;;5014281;28;20092;-66
2022/07/26 12:22:07;;;;;;;3.70;0.90;;;18.90;99.90;;;;;;5014113;28;20093;-65
2022/07/26 12:24:33;;;;;;;3.75;1.05;;;18.90;99.90;;;;;;5014105;28;20128;-66
2022/07/26 12:27:14;;;;;;;4.28;1.10;;;19.00;99.90;;;;;;5014341;28;20085;-66
2022/07/26 12:29:42;;;;;;;5.22;1.10;;;19.00;99.90;;;;;;5014443;28;20050;-66
2022/07/26 12:32:17;;;;;;;3.40;0.80;;;19.00;99.90;;;;;;5014366;28;20084;-65
2022/07/26 12:35:03;;;;;;;4.15;1.00;;;19.10;99.90;;;;;;5014725;28;20046;-65
2022/07/26 12:37:30;;;;;;;3.35;0.90;;;19.10;99.90;;;;;;5014470;28;20124;-66
2022/07/26 12:40:01;;;;;;;3.85;0.93;;;19.10;99.90;;;;;;4996498;28;20054;-66
2022/07/26 12:42:35;;;;;;;3.88;1.00;;;19.20;99.90;;;;;;4996863;28;20391;-66
2022/07/26 12:45:02;;;;;;;4.65;1.10;;;19.30;99.90;;;;;;5014603;28;20041;-65
2022/07/26 12:47:28;;;;;;;3.75;0.80;;;19.30;99.90;;;;;;5013967;28;20474;-65
2022/07/26 12:49:54;;;;;;;3.28;1.00;;;19.40;99.90;;;;;;4997237;28;20136;-65